Gabbs, Nevada
Current Conditions -  °F | °C
As of 4:56 PM on Friday 24 Oct 2014 (Local Time) from KNFL Reporting Station
Few Clouds Few Clouds  
Wind Chill: 77°   Ceiling: Unl
Heat Index: 77°   Visibility: 10mi
Dew Point: 31°   Wind: 9mph
Humidity: 19%   Direction: 20°NNE
Pressure: 29.91"   Gusts: NA
Location:  38.87°N, 117.92°W
Report Text: KNFL 242356Z 02008KT 10SM FEW220 25/M01 A2991 RMK AO2 SLP102 T02501006 10256 20156 56021
Loading
Personal Weather Stations






























Interactive Weather Map New forecast layout! Learn more

10-Day Weather Forecast

Advertisements
Track Severe Weather on mobile